createdAt,value
2022-11-13T00:00:00.161Z,1012.79
2022-11-13T00:05:00.264Z,1012.7
2022-11-13T00:10:00.119Z,1012.66
2022-11-13T00:15:00.225Z,1012.61
2022-11-13T00:20:00.152Z,1012.54
2022-11-13T00:25:00.171Z,1012.44
2022-11-13T00:30:00.137Z,1012.52
2022-11-13T00:35:00.262Z,1012.42
2022-11-13T00:40:00.184Z,1012.41
2022-11-13T00:45:00.187Z,1012.36
2022-11-13T00:50:00.188Z,1012.39
2022-11-13T00:55:00.267Z,1012.37
2022-11-13T01:00:00.210Z,1012.32
2022-11-13T01:05:00.221Z,1012.25
2022-11-13T01:10:00.239Z,1012.17
2022-11-13T01:15:00.474Z,1012.26
2022-11-13T01:20:00.145Z,1012.21
2022-11-13T01:25:00.099Z,1012.28
2022-11-13T01:30:00.190Z,1012.27
2022-11-13T01:35:00.297Z,1012.34
2022-11-13T01:40:00.245Z,1012.26
2022-11-13T01:45:00.204Z,1012.23
2022-11-13T01:50:00.193Z,1012.16
2022-11-13T01:55:00.246Z,1012.19
2022-11-13T02:00:00.191Z,1012.03
2022-11-13T02:05:00.132Z,1012
2022-11-13T02:10:00.141Z,1011.8
2022-11-13T02:15:00.298Z,1011.84
2022-11-13T02:20:00.216Z,1011.91
2022-11-13T02:25:00.102Z,1011.92
2022-11-13T02:30:00.243Z,1011.9
2022-11-13T02:35:00.250Z,1011.87
2022-11-13T02:40:00.135Z,1011.9
2022-11-13T02:45:00.118Z,1011.99
2022-11-13T02:50:00.130Z,1011.9
2022-11-13T02:55:00.297Z,1011.93
2022-11-13T03:00:00.169Z,1011.82
2022-11-13T03:05:15.535Z,1011.88
2022-11-13T03:10:00.157Z,1011.64
2022-11-13T03:15:00.307Z,1011.74
2022-11-13T03:20:00.201Z,1011.66
2022-11-13T03:25:00.177Z,1011.7
2022-11-13T03:30:00.274Z,1011.74
2022-11-13T03:35:00.378Z,1011.71
2022-11-13T03:40:00.158Z,1011.62
2022-11-13T03:45:00.277Z,1011.64
2022-11-13T03:50:00.167Z,1011.59
2022-11-13T03:55:00.264Z,1011.54
2022-11-13T04:00:00.186Z,1011.53
2022-11-13T04:05:00.202Z,1011.45
2022-11-13T04:10:00.181Z,1011.4
2022-11-13T04:15:00.272Z,1011.29
2022-11-13T04:20:00.174Z,1011.33
2022-11-13T04:25:00.236Z,1011.4
2022-11-13T04:30:00.199Z,1010.96
2022-11-13T04:35:00.266Z,1010.82
2022-11-13T04:40:00.109Z,1010.78
2022-11-13T04:45:00.187Z,1010.78
2022-11-13T04:50:00.189Z,1010.72
2022-11-13T04:55:00.250Z,1010.74
2022-11-13T05:00:00.231Z,1010.65
2022-11-13T05:05:04.561Z,1010.69
2022-11-13T05:10:00.264Z,1010.6
2022-11-13T05:15:00.338Z,1010.54
2022-11-13T05:20:00.262Z,1010.67
2022-11-13T05:25:00.187Z,1010.7
2022-11-13T05:30:00.166Z,1010.56
2022-11-13T05:35:00.279Z,1010.63
2022-11-13T05:40:00.170Z,1010.57
2022-11-13T05:45:00.229Z,1010.69
2022-11-13T05:50:00.166Z,1010.69
2022-11-13T05:55:00.250Z,1010.79
2022-11-13T06:00:00.177Z,1010.68
2022-11-13T06:05:00.194Z,1010.61
2022-11-13T06:10:00.148Z,1010.6
2022-11-13T06:15:00.293Z,1010.65
2022-11-13T06:20:00.105Z,1010.55
2022-11-13T06:25:00.155Z,1010.57
2022-11-13T06:30:00.129Z,1010.61
2022-11-13T06:35:00.215Z,1010.66
2022-11-13T06:40:00.108Z,1010.62
2022-11-13T06:45:00.134Z,1010.54
2022-11-13T06:50:00.125Z,1010.48
2022-11-13T06:55:00.239Z,1010.47
2022-11-13T07:00:00.182Z,1010.49
2022-11-13T07:05:00.135Z,1010.27
2022-11-13T07:10:00.121Z,1010.3
2022-11-13T07:15:00.251Z,1010.2
2022-11-13T07:20:00.144Z,1010.28
2022-11-13T07:25:00.112Z,1010.25
2022-11-13T07:30:03.473Z,1010.19
2022-11-13T07:35:00.240Z,1010.31
2022-11-13T07:40:00.114Z,1010.32
2022-11-13T07:45:00.129Z,1010.28
2022-11-13T07:50:04.561Z,1010.31
2022-11-13T07:55:00.221Z,1010.26
2022-11-13T08:00:00.193Z,1010.21
2022-11-13T08:05:00.103Z,1010.15
2022-11-13T08:10:00.145Z,1010.16
2022-11-13T08:15:00.262Z,1010.17
2022-11-13T08:20:00.123Z,1010.19
2022-11-13T08:25:00.188Z,1010.11
2022-11-13T08:30:00.188Z,1010.22
2022-11-13T08:35:00.265Z,1010.22
2022-11-13T08:40:00.105Z,1010.32
2022-11-13T08:45:00.149Z,1010.31
2022-11-13T08:50:00.169Z,1010.31
2022-11-13T08:55:00.267Z,1010.37
2022-11-13T09:00:00.155Z,1010.29
2022-11-13T09:05:00.102Z,1010.23
2022-11-13T09:10:00.164Z,1010.14
2022-11-13T09:15:00.266Z,1009.99
2022-11-13T09:20:03.876Z,1010.04
2022-11-13T09:25:00.131Z,1010.15
2022-11-13T09:30:00.147Z,1010.07
2022-11-13T09:35:00.249Z,1009.99
2022-11-13T09:40:00.127Z,1009.94
2022-11-13T09:45:00.102Z,1009.95
2022-11-13T09:50:00.185Z,1010
2022-11-13T09:55:00.215Z,1009.85
2022-11-13T10:00:00.181Z,1009.95
2022-11-13T10:05:00.118Z,1010.09
2022-11-13T10:10:00.102Z,1009.97
2022-11-13T10:15:00.256Z,1009.88
2022-11-13T10:20:00.158Z,1009.86
2022-11-13T10:25:00.134Z,1009.79
2022-11-13T10:30:00.121Z,1009.72
2022-11-13T10:35:00.244Z,1009.73
2022-11-13T10:40:00.144Z,1009.56
2022-11-13T10:45:00.130Z,1009.56
2022-11-13T10:50:00.144Z,1009.56
2022-11-13T10:55:00.242Z,1009.5
2022-11-13T11:00:00.178Z,1009.52
2022-11-13T11:05:00.176Z,1009.4
2022-11-13T11:10:00.124Z,1009.27
2022-11-13T11:15:00.226Z,1009.2
2022-11-13T11:20:00.148Z,1009.08
2022-11-13T11:25:00.153Z,1008.99
2022-11-13T11:30:00.173Z,1008.87
2022-11-13T11:35:00.256Z,1008.78
2022-11-13T11:40:00.131Z,1008.69
2022-11-13T11:45:00.145Z,1008.73
2022-11-13T11:50:00.132Z,1008.59
2022-11-13T11:55:00.144Z,1008.58
2022-11-13T12:00:00.218Z,1008.57
2022-11-13T12:05:00.207Z,1008.48
2022-11-13T12:10:00.122Z,1008.5
2022-11-13T12:15:00.286Z,1008.54
2022-11-13T12:20:00.151Z,1008.45
2022-11-13T12:25:00.153Z,1008.37
2022-11-13T12:30:00.139Z,1008.31
2022-11-13T12:35:00.263Z,1008.23
2022-11-13T12:40:00.124Z,1008.14
2022-11-13T12:45:00.105Z,1008.07
2022-11-13T12:50:00.130Z,1008.06
2022-11-13T12:55:00.230Z,1008.19
2022-11-13T13:00:00.132Z,1008.08
2022-11-13T13:05:00.107Z,1008.12
2022-11-13T13:10:00.136Z,1008
2022-11-13T13:15:00.235Z,1007.91
2022-11-13T13:20:00.132Z,1007.79
2022-11-13T13:25:00.098Z,1007.68
2022-11-13T13:30:00.199Z,1007.68
2022-11-13T13:35:00.221Z,1007.56
2022-11-13T13:40:00.146Z,1007.39
2022-11-13T13:45:00.118Z,1007.33
2022-11-13T13:50:00.124Z,1007.21
2022-11-13T13:55:00.292Z,1007.24
2022-11-13T14:00:00.219Z,1007.29
2022-11-13T14:05:00.122Z,1007.15
2022-11-13T14:10:00.098Z,1007.17
2022-11-13T14:15:00.213Z,1007.14
2022-11-13T14:20:00.149Z,1006.85
2022-11-13T14:25:00.268Z,1006.83
2022-11-13T14:30:00.193Z,1006.68
2022-11-13T15:05:00.282Z,1006.54
2022-11-13T15:10:00.115Z,1006.39
2022-11-13T15:15:00.166Z,1006.34
2022-11-13T15:20:02.134Z,1006.34
2022-11-13T15:25:00.284Z,1006.25
2022-11-13T15:30:00.658Z,1006.19
2022-11-13T15:35:00.105Z,1006.3
2022-11-13T15:40:00.161Z,1006.34
2022-11-13T15:45:00.235Z,1006.38
2022-11-13T15:50:13.290Z,1006.31
2022-11-13T15:55:00.124Z,1006.33
2022-11-13T16:00:00.240Z,1006.27
2022-11-13T16:05:00.221Z,1006.17
2022-11-13T16:10:00.208Z,1006.15
2022-11-13T16:15:00.104Z,1006.07
2022-11-13T16:20:00.224Z,1006
2022-11-13T16:25:00.263Z,1006.01
2022-11-13T16:30:05.426Z,1005.96
2022-11-13T16:35:00.131Z,1005.97
2022-11-13T16:40:00.192Z,1005.95
2022-11-13T16:45:00.228Z,1006.02
2022-11-13T16:50:00.096Z,1005.91
2022-11-13T16:55:05.224Z,1005.87
2022-11-13T17:00:00.116Z,1005.8
2022-11-13T17:05:00.222Z,1005.91
2022-11-13T17:10:24.528Z,1005.93
2022-11-13T17:15:00.090Z,1005.74
2022-11-13T17:20:00.111Z,1005.78
2022-11-13T17:25:00.260Z,1005.7
2022-11-13T17:30:00.121Z,1005.59
2022-11-13T17:35:00.106Z,1005.54
2022-11-13T17:40:00.132Z,1005.51
2022-11-13T17:45:00.228Z,1005.55
2022-11-13T17:50:04.106Z,1005.6
2022-11-13T17:55:00.175Z,1005.49
2022-11-13T18:00:00.185Z,1005.4
2022-11-13T18:05:00.223Z,1005.4
2022-11-13T18:10:00.104Z,1005.41
2022-11-13T18:15:00.172Z,1005.52
2022-11-13T18:20:01.847Z,1005.44
2022-11-13T18:25:00.220Z,1005.39
2022-11-13T18:30:00.184Z,1005.26
2022-11-13T18:35:00.147Z,1005.34
2022-11-13T18:40:00.908Z,1005.37
2022-11-13T18:45:04.581Z,1005.34
2022-11-13T18:50:00.154Z,1005.38
2022-11-13T18:55:00.118Z,1005.44
2022-11-13T19:00:00.168Z,1005.39
2022-11-13T19:05:00.258Z,1005.37
2022-11-13T19:10:00.109Z,1005.28
2022-11-13T19:15:00.095Z,1005.3
2022-11-13T19:20:00.132Z,1005.33
2022-11-13T19:25:00.222Z,1005.29
2022-11-13T19:30:00.148Z,1005.21
2022-11-13T19:35:00.119Z,1005.14
2022-11-13T19:40:00.149Z,1005.12
2022-11-13T19:45:00.226Z,1005.15
2022-11-13T19:50:00.100Z,1005.04
2022-11-13T19:55:00.126Z,1004.99
2022-11-13T20:00:00.129Z,1005.04
2022-11-13T20:05:00.127Z,1004.95
2022-11-13T20:10:00.132Z,1005.03
2022-11-13T20:15:00.140Z,1005.05
2022-11-13T20:20:00.144Z,1005.05
2022-11-13T20:25:00.291Z,1005.04
2022-11-13T20:30:00.117Z,1005.01
2022-11-13T20:35:00.092Z,1004.97
2022-11-13T20:40:00.121Z,1004.99
2022-11-13T20:45:01.390Z,1004.92
2022-11-13T20:50:00.122Z,1004.83
2022-11-13T20:55:00.093Z,1004.86
2022-11-13T21:00:00.187Z,1004.86
2022-11-13T21:05:00.214Z,1004.83
2022-11-13T21:10:00.130Z,1004.79
2022-11-13T21:15:00.146Z,1004.9
2022-11-13T21:20:00.100Z,1004.85
2022-11-13T21:25:00.252Z,1004.79
2022-11-13T21:30:00.164Z,1005.17
2022-11-13T21:35:00.169Z,1005.17
2022-11-13T21:40:00.117Z,1005.21
2022-11-13T21:45:00.243Z,1005.14
2022-11-13T21:50:00.102Z,1005.1
2022-11-13T21:55:00.108Z,1005.13
2022-11-13T22:00:00.140Z,1005.04
2022-11-13T22:05:00.287Z,1004.99
2022-11-13T22:10:02.899Z,1005.05
2022-11-13T22:15:00.107Z,1005.02
2022-11-13T22:20:00.194Z,1004.98
2022-11-13T22:25:00.257Z,1004.84
2022-11-13T22:30:00.128Z,1004.83
2022-11-13T22:35:00.143Z,1004.76
2022-11-13T22:40:00.122Z,1004.74
2022-11-13T22:45:00.233Z,1004.76
2022-11-13T22:50:00.115Z,1004.61
2022-11-13T22:55:00.108Z,1004.64
2022-11-13T23:00:00.177Z,1004.63
2022-11-13T23:05:00.270Z,1004.49
2022-11-13T23:10:00.108Z,1004.42
2022-11-13T23:15:00.117Z,1004.41
2022-11-13T23:20:00.136Z,1004.42
2022-11-13T23:25:00.218Z,1004.31
2022-11-13T23:30:00.131Z,1004.19
2022-11-13T23:35:00.464Z,1004.23
2022-11-13T23:40:00.096Z,1004.05
2022-11-13T23:45:00.237Z,1004.06
2022-11-13T23:50:00.137Z,1004.01
2022-11-13T23:55:00.117Z,1003.96
